sensor_id;sensor_type;location;lat;lon;timestamp;temperature;humidity
1175;DHT22;576;48.418;10.074;2024-01-30T00:00:27;22.10;53.10
1175;DHT22;576;48.418;10.074;2024-01-30T00:02:55;22.00;53.10
1175;DHT22;576;48.418;10.074;2024-01-30T00:05:23;22.00;53.00
1175;DHT22;576;48.418;10.074;2024-01-30T00:07:52;22.00;53.00
1175;DHT22;576;48.418;10.074;2024-01-30T00:10:20;22.00;53.00
1175;DHT22;576;48.418;10.074;2024-01-30T00:12:48;22.00;53.00
1175;DHT22;576;48.418;10.074;2024-01-30T00:15:17;22.00;53.00
1175;DHT22;576;48.418;10.074;2024-01-30T00:17:46;22.00;53.00
1175;DHT22;576;48.418;10.074;2024-01-30T00:20:15;22.00;53.00
1175;DHT22;576;48.418;10.074;2024-01-30T00:22:43;22.00;53.00
1175;DHT22;576;48.418;10.074;2024-01-30T00:25:11;22.00;53.00
1175;DHT22;576;48.418;10.074;2024-01-30T00:27:40;22.00;53.00
1175;DHT22;576;48.418;10.074;2024-01-30T00:30:09;21.90;53.00
1175;DHT22;576;48.418;10.074;2024-01-30T00:32:37;21.90;53.00
1175;DHT22;576;48.418;10.074;2024-01-30T00:35:07;21.90;53.00
1175;DHT22;576;48.418;10.074;2024-01-30T00:37:37;21.90;53.00
1175;DHT22;576;48.418;10.074;2024-01-30T00:40:06;21.90;53.00
1175;DHT22;576;48.418;10.074;2024-01-30T00:42:37;21.80;53.00
1175;DHT22;576;48.418;10.074;2024-01-30T00:45:06;21.80;53.00
1175;DHT22;576;48.418;10.074;2024-01-30T00:47:34;21.80;53.00
1175;DHT22;576;48.418;10.074;2024-01-30T00:50:02;21.80;53.00
1175;DHT22;576;48.418;10.074;2024-01-30T00:52:32;21.80;53.00
1175;DHT22;576;48.418;10.074;2024-01-30T00:55:00;21.80;53.00
1175;DHT22;576;48.418;10.074;2024-01-30T00:57:29;21.80;53.00
1175;DHT22;576;48.418;10.074;2024-01-30T00:59:58;21.80;52.90
1175;DHT22;576;48.418;10.074;2024-01-30T01:02:26;21.80;52.90
1175;DHT22;576;48.418;10.074;2024-01-30T01:04:54;21.80;52.90
1175;DHT22;576;48.418;10.074;2024-01-30T01:07:22;21.70;52.90
1175;DHT22;576;48.418;10.074;2024-01-30T01:09:52;21.70;52.90
1175;DHT22;576;48.418;10.074;2024-01-30T01:12:20;21.70;53.00
1175;DHT22;576;48.418;10.074;2024-01-30T01:14:49;21.70;52.90
1175;DHT22;576;48.418;10.074;2024-01-30T01:17:17;21.70;52.90
1175;DHT22;576;48.418;10.074;2024-01-30T01:19:45;21.70;52.90
1175;DHT22;576;48.418;10.074;2024-01-30T01:22:15;21.70;52.90
1175;DHT22;576;48.418;10.074;2024-01-30T01:24:44;21.70;52.90
1175;DHT22;576;48.418;10.074;2024-01-30T01:27:14;21.70;52.90
1175;DHT22;576;48.418;10.074;2024-01-30T01:29:42;21.70;52.90
1175;DHT22;576;48.418;10.074;2024-01-30T01:32:10;21.60;53.00
1175;DHT22;576;48.418;10.074;2024-01-30T01:34:38;21.70;53.00
1175;DHT22;576;48.418;10.074;2024-01-30T01:37:07;21.60;53.00
1175;DHT22;576;48.418;10.074;2024-01-30T01:39:35;21.60;53.00
1175;DHT22;576;48.418;10.074;2024-01-30T01:42:04;21.60;53.00
1175;DHT22;576;48.418;10.074;2024-01-30T01:44:34;21.60;52.90
1175;DHT22;576;48.418;10.074;2024-01-30T01:47:02;21.60;52.90
1175;DHT22;576;48.418;10.074;2024-01-30T01:49:31;21.60;52.90
1175;DHT22;576;48.418;10.074;2024-01-30T01:52:00;21.60;52.90
1175;DHT22;576;48.418;10.074;2024-01-30T01:54:29;21.60;52.90
1175;DHT22;576;48.418;10.074;2024-01-30T01:56:58;21.60;52.90
1175;DHT22;576;48.418;10.074;2024-01-30T01:59:26;21.60;52.90
1175;DHT22;576;48.418;10.074;2024-01-30T02:01:57;21.60;52.90
1175;DHT22;576;48.418;10.074;2024-01-30T02:04:25;21.60;52.90
1175;DHT22;576;48.418;10.074;2024-01-30T02:06:53;21.60;52.80
1175;DHT22;576;48.418;10.074;2024-01-30T02:09:22;21.60;52.80
1175;DHT22;576;48.418;10.074;2024-01-30T02:11:50;21.60;52.80
1175;DHT22;576;48.418;10.074;2024-01-30T02:14:20;21.60;52.80
1175;DHT22;576;48.418;10.074;2024-01-30T02:16:48;21.60;52.80
1175;DHT22;576;48.418;10.074;2024-01-30T02:19:18;21.60;52.80
1175;DHT22;576;48.418;10.074;2024-01-30T02:21:48;21.60;52.80
1175;DHT22;576;48.418;10.074;2024-01-30T02:24:17;21.50;52.80
1175;DHT22;576;48.418;10.074;2024-01-30T02:26:45;21.50;52.80
1175;DHT22;576;48.418;10.074;2024-01-30T02:29:17;21.50;52.80
1175;DHT22;576;48.418;10.074;2024-01-30T02:31:45;21.50;52.80
1175;DHT22;576;48.418;10.074;2024-01-30T02:34:14;21.50;52.80
1175;DHT22;576;48.418;10.074;2024-01-30T02:36:42;21.50;52.80
1175;DHT22;576;48.418;10.074;2024-01-30T02:39:12;21.50;52.80
1175;DHT22;576;48.418;10.074;2024-01-30T02:41:40;21.50;52.80
1175;DHT22;576;48.418;10.074;2024-01-30T02:44:09;21.50;52.70
1175;DHT22;576;48.418;10.074;2024-01-30T02:46:37;21.50;52.80
1175;DHT22;576;48.418;10.074;2024-01-30T02:49:05;21.50;52.70
1175;DHT22;576;48.418;10.074;2024-01-30T02:51:33;21.50;52.70
1175;DHT22;576;48.418;10.074;2024-01-30T02:54:02;21.50;52.70
1175;DHT22;576;48.418;10.074;2024-01-30T02:56:31;21.40;52.70
1175;DHT22;576;48.418;10.074;2024-01-30T02:58:59;21.40;52.70
1175;DHT22;576;48.418;10.074;2024-01-30T03:01:28;21.40;52.70
1175;DHT22;576;48.418;10.074;2024-01-30T03:03:56;21.40;52.70
1175;DHT22;576;48.418;10.074;2024-01-30T03:06:24;21.40;52.80
1175;DHT22;576;48.418;10.074;2024-01-30T03:08:53;21.40;52.70
1175;DHT22;576;48.418;10.074;2024-01-30T03:11:21;21.40;52.70
1175;DHT22;576;48.418;10.074;2024-01-30T03:13:50;21.40;52.70
1175;DHT22;576;48.418;10.074;2024-01-30T03:16:19;21.30;52.70
1175;DHT22;576;48.418;10.074;2024-01-30T03:18:47;21.30;52.70
1175;DHT22;576;48.418;10.074;2024-01-30T03:21:16;21.30;52.70
1175;DHT22;576;48.418;10.074;2024-01-30T03:23:44;21.30;52.70
1175;DHT22;576;48.418;10.074;2024-01-30T03:26:12;21.30;52.70
1175;DHT22;576;48.418;10.074;2024-01-30T03:28:42;21.30;52.70
1175;DHT22;576;48.418;10.074;2024-01-30T03:31:15;21.30;52.70
1175;DHT22;576;48.418;10.074;2024-01-30T03:33:44;21.30;52.70
1175;DHT22;576;48.418;10.074;2024-01-30T03:36:12;21.30;52.70
1175;DHT22;576;48.418;10.074;2024-01-30T03:38:40;21.30;52.70
1175;DHT22;576;48.418;10.074;2024-01-30T03:41:09;21.30;52.70
1175;DHT22;576;48.418;10.074;2024-01-30T03:43:37;21.20;52.70
1175;DHT22;576;48.418;10.074;2024-01-30T03:46:05;21.20;52.70
1175;DHT22;576;48.418;10.074;2024-01-30T03:48:35;21.20;52.70
1175;DHT22;576;48.418;10.074;2024-01-30T03:51:04;21.20;52.70
1175;DHT22;576;48.418;10.074;2024-01-30T03:53:32;21.20;52.70
1175;DHT22;576;48.418;10.074;2024-01-30T03:56:00;21.20;52.70
1175;DHT22;576;48.418;10.074;2024-01-30T03:58:30;21.20;52.70
1175;DHT22;576;48.418;10.074;2024-01-30T04:00:58;21.20;52.80
1175;DHT22;576;48.418;10.074;2024-01-30T04:03:26;21.20;52.70
1175;DHT22;576;48.418;10.074;2024-01-30T04:05:56;21.20;52.70
1175;DHT22;576;48.418;10.074;2024-01-30T04:08:24;21.20;52.70
1175;DHT22;576;48.418;10.074;2024-01-30T04:10:53;21.20;52.70
1175;DHT22;576;48.418;10.074;2024-01-30T04:13:21;21.20;52.70
1175;DHT22;576;48.418;10.074;2024-01-30T04:15:50;21.20;52.70
1175;DHT22;576;48.418;10.074;2024-01-30T04:18:19;21.10;52.70
1175;DHT22;576;48.418;10.074;2024-01-30T04:20:47;21.10;52.70
1175;DHT22;576;48.418;10.074;2024-01-30T04:23:17;21.10;52.70
1175;DHT22;576;48.418;10.074;2024-01-30T04:25:45;21.10;52.70
1175;DHT22;576;48.418;10.074;2024-01-30T04:28:13;21.10;52.70
1175;DHT22;576;48.418;10.074;2024-01-30T04:30:41;21.10;52.70
1175;DHT22;576;48.418;10.074;2024-01-30T04:33:10;21.10;52.70
1175;DHT22;576;48.418;10.074;2024-01-30T04:35:39;21.10;52.70
1175;DHT22;576;48.418;10.074;2024-01-30T04:38:07;21.10;52.70
1175;DHT22;576;48.418;10.074;2024-01-30T04:40:37;21.10;52.70
1175;DHT22;576;48.418;10.074;2024-01-30T04:43:05;21.10;52.70
1175;DHT22;576;48.418;10.074;2024-01-30T04:45:33;21.00;52.70
1175;DHT22;576;48.418;10.074;2024-01-30T04:48:01;21.10;52.70
1175;DHT22;576;48.418;10.074;2024-01-30T04:50:30;21.00;52.70
1175;DHT22;576;48.418;10.074;2024-01-30T04:52:58;21.00;52.70
1175;DHT22;576;48.418;10.074;2024-01-30T04:55:27;21.00;52.70
1175;DHT22;576;48.418;10.074;2024-01-30T04:57:56;21.10;52.70
1175;DHT22;576;48.418;10.074;2024-01-30T05:00:25;21.00;52.70
1175;DHT22;576;48.418;10.074;2024-01-30T05:02:55;21.10;52.70
1175;DHT22;576;48.418;10.074;2024-01-30T05:05:23;21.10;52.70
1175;DHT22;576;48.418;10.074;2024-01-30T05:07:51;21.10;52.60
1175;DHT22;576;48.418;10.074;2024-01-30T05:10:20;21.10;52.60
1175;DHT22;576;48.418;10.074;2024-01-30T05:12:48;21.20;52.60
1175;DHT22;576;48.418;10.074;2024-01-30T05:15:18;21.20;52.60
1175;DHT22;576;48.418;10.074;2024-01-30T05:17:47;21.20;52.50
1175;DHT22;576;48.418;10.074;2024-01-30T05:20:16;21.20;52.50
1175;DHT22;576;48.418;10.074;2024-01-30T05:22:44;21.30;52.50
1175;DHT22;576;48.418;10.074;2024-01-30T05:25:13;21.30;52.50
1175;DHT22;576;48.418;10.074;2024-01-30T05:27:41;21.30;52.50
1175;DHT22;576;48.418;10.074;2024-01-30T05:30:10;21.30;52.50
1175;DHT22;576;48.418;10.074;2024-01-30T05:32:40;21.30;52.50
1175;DHT22;576;48.418;10.074;2024-01-30T05:35:09;21.30;52.50
1175;DHT22;576;48.418;10.074;2024-01-30T05:37:37;21.40;52.50
1175;DHT22;576;48.418;10.074;2024-01-30T05:40:07;21.40;52.60
1175;DHT22;576;48.418;10.074;2024-01-30T05:42:36;21.40;52.60
1175;DHT22;576;48.418;10.074;2024-01-30T05:45:05;21.40;52.60
1175;DHT22;576;48.418;10.074;2024-01-30T05:47:34;21.50;52.70
1175;DHT22;576;48.418;10.074;2024-01-30T05:50:06;21.50;52.80
1175;DHT22;576;48.418;10.074;2024-01-30T05:52:34;21.50;53.00
1175;DHT22;576;48.418;10.074;2024-01-30T05:55:03;21.60;53.00
1175;DHT22;576;48.418;10.074;2024-01-30T05:57:32;21.60;53.10
1175;DHT22;576;48.418;10.074;2024-01-30T06:00:01;21.60;53.10
1175;DHT22;576;48.418;10.074;2024-01-30T06:02:30;21.60;53.10
1175;DHT22;576;48.418;10.074;2024-01-30T06:04:58;21.70;53.10
1175;DHT22;576;48.418;10.074;2024-01-30T06:07:28;21.70;53.00
1175;DHT22;576;48.418;10.074;2024-01-30T06:10:02;21.70;53.00
1175;DHT22;576;48.418;10.074;2024-01-30T06:12:31;21.70;52.90
1175;DHT22;576;48.418;10.074;2024-01-30T06:14:59;21.70;52.80
1175;DHT22;576;48.418;10.074;2024-01-30T06:17:27;21.70;52.80
1175;DHT22;576;48.418;10.074;2024-01-30T06:19:56;21.70;52.90
1175;DHT22;576;48.418;10.074;2024-01-30T06:22:24;21.70;52.90
1175;DHT22;576;48.418;10.074;2024-01-30T06:24:54;21.70;52.90
1175;DHT22;576;48.418;10.074;2024-01-30T06:27:22;21.70;53.00
1175;DHT22;576;48.418;10.074;2024-01-30T06:29:50;21.70;53.00
1175;DHT22;576;48.418;10.074;2024-01-30T06:32:19;21.70;53.00
1175;DHT22;576;48.418;10.074;2024-01-30T06:34:47;21.70;53.10
1175;DHT22;576;48.418;10.074;2024-01-30T06:37:15;21.60;53.40
1175;DHT22;576;48.418;10.074;2024-01-30T06:39:43;21.60;53.50
1175;DHT22;576;48.418;10.074;2024-01-30T06:42:13;21.60;53.50
1175;DHT22;576;48.418;10.074;2024-01-30T06:44:41;21.60;53.40
1175;DHT22;576;48.418;10.074;2024-01-30T06:47:10;21.60;53.20
1175;DHT22;576;48.418;10.074;2024-01-30T06:49:38;21.60;52.80
1175;DHT22;576;48.418;10.074;2024-01-30T06:52:09;21.60;52.20
1175;DHT22;576;48.418;10.074;2024-01-30T06:54:37;21.50;51.70
1175;DHT22;576;48.418;10.074;2024-01-30T06:57:06;21.50;51.30
1175;DHT22;576;48.418;10.074;2024-01-30T06:59:39;21.50;51.00
1175;DHT22;576;48.418;10.074;2024-01-30T07:02:10;21.50;50.80
1175;DHT22;576;48.418;10.074;2024-01-30T07:04:38;21.50;50.70
1175;DHT22;576;48.418;10.074;2024-01-30T07:07:13;21.40;50.80
1175;DHT22;576;48.418;10.074;2024-01-30T07:09:42;21.40;51.00
1175;DHT22;576;48.418;10.074;2024-01-30T07:12:11;21.50;51.20
1175;DHT22;576;48.418;10.074;2024-01-30T07:14:41;21.50;51.40
1175;DHT22;576;48.418;10.074;2024-01-30T07:17:09;21.50;51.50
1175;DHT22;576;48.418;10.074;2024-01-30T07:19:37;21.50;51.60
1175;DHT22;576;48.418;10.074;2024-01-30T07:22:05;21.50;51.70
1175;DHT22;576;48.418;10.074;2024-01-30T07:24:34;21.50;51.70
1175;DHT22;576;48.418;10.074;2024-01-30T07:27:03;21.60;51.70
1175;DHT22;576;48.418;10.074;2024-01-30T07:29:31;21.60;51.70
1175;DHT22;576;48.418;10.074;2024-01-30T07:32:01;21.60;51.70
1175;DHT22;576;48.418;10.074;2024-01-30T07:34:29;21.60;51.90
1175;DHT22;576;48.418;10.074;2024-01-30T07:37:00;21.70;52.60
1175;DHT22;576;48.418;10.074;2024-01-30T07:39:28;21.70;53.20
1175;DHT22;576;48.418;10.074;2024-01-30T07:41:56;21.70;53.70
1175;DHT22;576;48.418;10.074;2024-01-30T07:44:25;21.70;54.00
1175;DHT22;576;48.418;10.074;2024-01-30T07:46:53;21.70;54.20
1175;DHT22;576;48.418;10.074;2024-01-30T07:49:23;21.80;54.50
1175;DHT22;576;48.418;10.074;2024-01-30T07:51:52;21.80;54.60
1175;DHT22;576;48.418;10.074;2024-01-30T07:54:20;21.80;54.60
1175;DHT22;576;48.418;10.074;2024-01-30T07:56:49;21.80;54.70
1175;DHT22;576;48.418;10.074;2024-01-30T07:59:17;21.80;54.70
1175;DHT22;576;48.418;10.074;2024-01-30T08:01:48;21.80;54.70
1175;DHT22;576;48.418;10.074;2024-01-30T08:04:17;21.80;54.80
1175;DHT22;576;48.418;10.074;2024-01-30T08:06:47;21.90;54.80
1175;DHT22;576;48.418;10.074;2024-01-30T08:09:15;21.90;54.80
1175;DHT22;576;48.418;10.074;2024-01-30T08:11:44;21.90;54.80
1175;DHT22;576;48.418;10.074;2024-01-30T08:14:12;22.00;54.80
1175;DHT22;576;48.418;10.074;2024-01-30T08:16:40;22.00;54.80
1175;DHT22;576;48.418;10.074;2024-01-30T08:19:09;22.00;54.70
1175;DHT22;576;48.418;10.074;2024-01-30T08:21:37;22.00;54.60
1175;DHT22;576;48.418;10.074;2024-01-30T08:24:08;22.00;54.50
1175;DHT22;576;48.418;10.074;2024-01-30T08:26:36;22.10;54.40
1175;DHT22;576;48.418;10.074;2024-01-30T08:29:05;22.10;54.40
1175;DHT22;576;48.418;10.074;2024-01-30T08:31:34;22.10;54.30
1175;DHT22;576;48.418;10.074;2024-01-30T08:34:02;22.10;54.30
1175;DHT22;576;48.418;10.074;2024-01-30T08:36:31;22.10;54.30
1175;DHT22;576;48.418;10.074;2024-01-30T08:38:59;22.10;54.30
1175;DHT22;576;48.418;10.074;2024-01-30T08:41:33;22.20;54.30
1175;DHT22;576;48.418;10.074;2024-01-30T08:44:01;22.20;54.20
1175;DHT22;576;48.418;10.074;2024-01-30T08:46:31;22.20;54.20
1175;DHT22;576;48.418;10.074;2024-01-30T08:48:59;22.20;54.20
1175;DHT22;576;48.418;10.074;2024-01-30T08:51:28;22.20;54.20
1175;DHT22;576;48.418;10.074;2024-01-30T08:53:56;22.20;54.20
1175;DHT22;576;48.418;10.074;2024-01-30T08:56:24;22.20;54.20
1175;DHT22;576;48.418;10.074;2024-01-30T08:58:54;22.20;54.20
1175;DHT22;576;48.418;10.074;2024-01-30T09:01:22;22.20;54.20
1175;DHT22;576;48.418;10.074;2024-01-30T09:03:51;22.20;54.20
1175;DHT22;576;48.418;10.074;2024-01-30T09:06:19;22.20;54.20
1175;DHT22;576;48.418;10.074;2024-01-30T09:08:47;22.20;54.20
1175;DHT22;576;48.418;10.074;2024-01-30T09:11:16;22.20;54.20
1175;DHT22;576;48.418;10.074;2024-01-30T09:13:44;22.20;54.20
1175;DHT22;576;48.418;10.074;2024-01-30T09:16:14;22.20;54.20
1175;DHT22;576;48.418;10.074;2024-01-30T09:18:43;22.20;54.20
1175;DHT22;576;48.418;10.074;2024-01-30T09:21:11;22.30;54.10
1175;DHT22;576;48.418;10.074;2024-01-30T09:23:39;22.30;54.10
1175;DHT22;576;48.418;10.074;2024-01-30T09:26:07;22.30;54.10
1175;DHT22;576;48.418;10.074;2024-01-30T09:28:36;22.30;54.00
1175;DHT22;576;48.418;10.074;2024-01-30T09:31:09;22.30;54.00
1175;DHT22;576;48.418;10.074;2024-01-30T09:33:38;22.30;54.00
1175;DHT22;576;48.418;10.074;2024-01-30T09:36:08;22.30;54.00
1175;DHT22;576;48.418;10.074;2024-01-30T09:38:36;22.40;53.90
1175;DHT22;576;48.418;10.074;2024-01-30T09:41:08;22.40;53.90
1175;DHT22;576;48.418;10.074;2024-01-30T09:43:38;22.40;53.80
1175;DHT22;576;48.418;10.074;2024-01-30T09:46:09;22.40;53.70
1175;DHT22;576;48.418;10.074;2024-01-30T09:48:41;22.40;53.60
1175;DHT22;576;48.418;10.074;2024-01-30T09:51:11;22.30;53.50
1175;DHT22;576;48.418;10.074;2024-01-30T09:53:42;22.40;53.50
1175;DHT22;576;48.418;10.074;2024-01-30T09:56:12;22.30;53.50
1175;DHT22;576;48.418;10.074;2024-01-30T09:58:40;22.30;53.40
1175;DHT22;576;48.418;10.074;2024-01-30T10:01:09;22.30;53.40
1175;DHT22;576;48.418;10.074;2024-01-30T10:03:38;22.30;53.20
1175;DHT22;576;48.418;10.074;2024-01-30T10:06:08;22.30;53.40
1175;DHT22;576;48.418;10.074;2024-01-30T10:08:37;22.30;53.10
1175;DHT22;576;48.418;10.074;2024-01-30T10:11:05;22.30;53.20
1175;DHT22;576;48.418;10.074;2024-01-30T10:13:34;22.30;53.20
1175;DHT22;576;48.418;10.074;2024-01-30T10:16:02;22.30;53.40
1175;DHT22;576;48.418;10.074;2024-01-30T10:18:33;22.30;53.40
1175;DHT22;576;48.418;10.074;2024-01-30T10:21:01;22.20;53.30
1175;DHT22;576;48.418;10.074;2024-01-30T10:23:33;22.20;53.30
1175;DHT22;576;48.418;10.074;2024-01-30T10:26:02;22.20;53.40
1175;DHT22;576;48.418;10.074;2024-01-30T10:28:31;22.30;53.60
1175;DHT22;576;48.418;10.074;2024-01-30T10:31:00;22.30;53.60
1175;DHT22;576;48.418;10.074;2024-01-30T10:33:33;22.40;53.70
1175;DHT22;576;48.418;10.074;2024-01-30T10:36:03;22.40;53.60
1175;DHT22;576;48.418;10.074;2024-01-30T10:38:33;22.50;53.60
1175;DHT22;576;48.418;10.074;2024-01-30T10:41:01;22.50;53.50
1175;DHT22;576;48.418;10.074;2024-01-30T10:43:32;22.60;53.30
1175;DHT22;576;48.418;10.074;2024-01-30T10:46:10;22.70;53.30
1175;DHT22;576;48.418;10.074;2024-01-30T10:48:43;22.80;53.20
1175;DHT22;576;48.418;10.074;2024-01-30T10:51:13;22.80;53.10
1175;DHT22;576;48.418;10.074;2024-01-30T10:53:44;22.90;53.00
1175;DHT22;576;48.418;10.074;2024-01-30T10:56:16;22.90;52.90
1175;DHT22;576;48.418;10.074;2024-01-30T10:58:45;23.00;52.90
1175;DHT22;576;48.418;10.074;2024-01-30T11:01:14;23.00;52.90
1175;DHT22;576;48.418;10.074;2024-01-30T11:03:43;23.00;52.80
1175;DHT22;576;48.418;10.074;2024-01-30T11:06:11;23.10;52.70
1175;DHT22;576;48.418;10.074;2024-01-30T11:08:42;23.10;52.70
1175;DHT22;576;48.418;10.074;2024-01-30T11:11:11;23.20;52.60
1175;DHT22;576;48.418;10.074;2024-01-30T11:13:43;23.20;52.50
1175;DHT22;576;48.418;10.074;2024-01-30T11:16:12;23.20;52.50
1175;DHT22;576;48.418;10.074;2024-01-30T11:18:41;23.30;52.40
1175;DHT22;576;48.418;10.074;2024-01-30T11:21:13;23.30;52.30
1175;DHT22;576;48.418;10.074;2024-01-30T11:23:43;23.20;52.20
1175;DHT22;576;48.418;10.074;2024-01-30T11:26:11;23.20;52.00
1175;DHT22;576;48.418;10.074;2024-01-30T11:28:40;23.20;52.10
1175;DHT22;576;48.418;10.074;2024-01-30T11:31:08;23.10;52.10
1175;DHT22;576;48.418;10.074;2024-01-30T11:33:39;23.20;52.20
1175;DHT22;576;48.418;10.074;2024-01-30T11:36:08;23.30;52.20
1175;DHT22;576;48.418;10.074;2024-01-30T11:38:37;23.40;51.90
1175;DHT22;576;48.418;10.074;2024-01-30T11:41:09;23.40;51.80
1175;DHT22;576;48.418;10.074;2024-01-30T11:43:37;23.40;51.80
1175;DHT22;576;48.418;10.074;2024-01-30T11:46:06;23.40;51.80
1175;DHT22;576;48.418;10.074;2024-01-30T11:48:36;23.40;51.80
1175;DHT22;576;48.418;10.074;2024-01-30T11:51:05;23.30;51.90
1175;DHT22;576;48.418;10.074;2024-01-30T11:53:33;23.30;51.90
1175;DHT22;576;48.418;10.074;2024-01-30T11:56:02;23.30;51.90
1175;DHT22;576;48.418;10.074;2024-01-30T11:58:32;23.30;52.00
1175;DHT22;576;48.418;10.074;2024-01-30T12:01:00;23.30;51.90
1175;DHT22;576;48.418;10.074;2024-01-30T12:03:29;23.30;51.90
1175;DHT22;576;48.418;10.074;2024-01-30T12:05:58;23.30;51.90
1175;DHT22;576;48.418;10.074;2024-01-30T12:08:27;23.30;51.70
1175;DHT22;576;48.418;10.074;2024-01-30T12:10:56;23.30;51.60
1175;DHT22;576;48.418;10.074;2024-01-30T12:13:26;23.20;51.70
1175;DHT22;576;48.418;10.074;2024-01-30T12:16:01;23.20;51.80
1175;DHT22;576;48.418;10.074;2024-01-30T12:18:29;23.20;51.70
1175;DHT22;576;48.418;10.074;2024-01-30T12:20:58;23.20;51.80
1175;DHT22;576;48.418;10.074;2024-01-30T12:23:27;23.20;51.80
1175;DHT22;576;48.418;10.074;2024-01-30T12:25:56;23.20;51.70
1175;DHT22;576;48.418;10.074;2024-01-30T12:28:25;23.10;51.80
1175;DHT22;576;48.418;10.074;2024-01-30T12:30:55;23.10;51.80
1175;DHT22;576;48.418;10.074;2024-01-30T12:33:27;23.10;51.80
1175;DHT22;576;48.418;10.074;2024-01-30T12:35:56;23.00;51.90
1175;DHT22;576;48.418;10.074;2024-01-30T12:38:30;23.00;52.00
1175;DHT22;576;48.418;10.074;2024-01-30T12:40:58;23.00;52.00
1175;DHT22;576;48.418;10.074;2024-01-30T12:43:26;23.00;52.00
1175;DHT22;576;48.418;10.074;2024-01-30T12:46:05;23.00;52.00
1175;DHT22;576;48.418;10.074;2024-01-30T12:48:35;22.90;52.20
1175;DHT22;576;48.418;10.074;2024-01-30T12:51:04;22.90;52.10
1175;DHT22;576;48.418;10.074;2024-01-30T12:53:32;22.90;52.30
1175;DHT22;576;48.418;10.074;2024-01-30T12:56:01;22.90;52.30
1175;DHT22;576;48.418;10.074;2024-01-30T12:58:29;22.90;52.30
1175;DHT22;576;48.418;10.074;2024-01-30T13:00:57;22.90;52.30
1175;DHT22;576;48.418;10.074;2024-01-30T13:03:27;22.90;52.40
1175;DHT22;576;48.418;10.074;2024-01-30T13:05:57;22.90;52.40
1175;DHT22;576;48.418;10.074;2024-01-30T13:08:26;22.90;52.50
1175;DHT22;576;48.418;10.074;2024-01-30T13:10:54;22.90;52.60
1175;DHT22;576;48.418;10.074;2024-01-30T13:13:22;22.90;52.70
1175;DHT22;576;48.418;10.074;2024-01-30T13:15:51;22.90;52.70
1175;DHT22;576;48.418;10.074;2024-01-30T13:18:19;23.00;52.70
1175;DHT22;576;48.418;10.074;2024-01-30T13:20:47;23.00;52.70
1175;DHT22;576;48.418;10.074;2024-01-30T13:23:17;23.00;52.70
1175;DHT22;576;48.418;10.074;2024-01-30T13:25:46;23.10;52.60
1175;DHT22;576;48.418;10.074;2024-01-30T13:28:14;23.10;52.70
1175;DHT22;576;48.418;10.074;2024-01-30T13:30:43;23.10;52.70
1175;DHT22;576;48.418;10.074;2024-01-30T13:33:11;23.10;52.70
1175;DHT22;576;48.418;10.074;2024-01-30T13:35:39;23.10;52.70
1175;DHT22;576;48.418;10.074;2024-01-30T13:38:07;23.10;52.70
1175;DHT22;576;48.418;10.074;2024-01-30T13:40:37;23.10;52.70
1175;DHT22;576;48.418;10.074;2024-01-30T13:43:06;23.10;52.70
1175;DHT22;576;48.418;10.074;2024-01-30T13:45:34;23.10;52.80
1175;DHT22;576;48.418;10.074;2024-01-30T13:48:03;23.10;52.80
1175;DHT22;576;48.418;10.074;2024-01-30T13:50:31;23.10;52.90
1175;DHT22;576;48.418;10.074;2024-01-30T13:53:02;23.10;52.90
1175;DHT22;576;48.418;10.074;2024-01-30T13:55:31;23.00;52.90
1175;DHT22;576;48.418;10.074;2024-01-30T13:58:01;23.00;53.00
1175;DHT22;576;48.418;10.074;2024-01-30T14:00:29;23.00;53.00
1175;DHT22;576;48.418;10.074;2024-01-30T14:02:58;23.00;52.90
1175;DHT22;576;48.418;10.074;2024-01-30T14:05:27;23.00;53.00
1175;DHT22;576;48.418;10.074;2024-01-30T14:07:56;23.00;53.00
1175;DHT22;576;48.418;10.074;2024-01-30T14:10:25;23.00;53.00
1175;DHT22;576;48.418;10.074;2024-01-30T14:12:53;23.00;53.00
1175;DHT22;576;48.418;10.074;2024-01-30T14:15:23;23.00;53.00
1175;DHT22;576;48.418;10.074;2024-01-30T14:17:55;23.00;53.00
1175;DHT22;576;48.418;10.074;2024-01-30T14:20:26;23.00;52.90
1175;DHT22;576;48.418;10.074;2024-01-30T14:22:54;23.00;52.90
1175;DHT22;576;48.418;10.074;2024-01-30T14:25:23;23.00;52.90
1175;DHT22;576;48.418;10.074;2024-01-30T14:27:52;23.00;52.90
1175;DHT22;576;48.418;10.074;2024-01-30T14:30:22;23.00;52.90
1175;DHT22;576;48.418;10.074;2024-01-30T14:32:51;23.00;53.00
1175;DHT22;576;48.418;10.074;2024-01-30T14:35:20;22.90;53.00
1175;DHT22;576;48.418;10.074;2024-01-30T14:37:49;23.00;53.10
1175;DHT22;576;48.418;10.074;2024-01-30T14:40:17;22.90;53.00
1175;DHT22;576;48.418;10.074;2024-01-30T14:42:46;22.90;53.10
1175;DHT22;576;48.418;10.074;2024-01-30T14:45:15;22.90;53.20
1175;DHT22;576;48.418;10.074;2024-01-30T14:47:46;22.90;53.20
1175;DHT22;576;48.418;10.074;2024-01-30T14:50:14;22.90;53.10
1175;DHT22;576;48.418;10.074;2024-01-30T14:52:44;22.90;53.10
1175;DHT22;576;48.418;10.074;2024-01-30T14:55:12;22.90;53.00
1175;DHT22;576;48.418;10.074;2024-01-30T14:57:41;22.90;52.90
1175;DHT22;576;48.418;10.074;2024-01-30T15:00:13;22.90;52.90
1175;DHT22;576;48.418;10.074;2024-01-30T15:02:44;23.00;52.80
1175;DHT22;576;48.418;10.074;2024-01-30T15:05:14;22.90;52.80
1175;DHT22;576;48.418;10.074;2024-01-30T15:07:43;22.90;52.70
1175;DHT22;576;48.418;10.074;2024-01-30T15:10:12;22.90;52.70
1175;DHT22;576;48.418;10.074;2024-01-30T15:12:40;22.90;52.70
1175;DHT22;576;48.418;10.074;2024-01-30T15:15:08;22.90;52.70
1175;DHT22;576;48.418;10.074;2024-01-30T15:17:38;22.90;52.70
1175;DHT22;576;48.418;10.074;2024-01-30T15:20:08;22.90;52.70
1175;DHT22;576;48.418;10.074;2024-01-30T15:22:37;22.90;52.70
1175;DHT22;576;48.418;10.074;2024-01-30T15:25:07;22.80;52.70
1175;DHT22;576;48.418;10.074;2024-01-30T15:27:35;22.80;52.70
1175;DHT22;576;48.418;10.074;2024-01-30T15:30:05;22.80;52.80
1175;DHT22;576;48.418;10.074;2024-01-30T15:32:33;22.80;52.80
1175;DHT22;576;48.418;10.074;2024-01-30T15:35:01;22.80;52.80
1175;DHT22;576;48.418;10.074;2024-01-30T15:37:33;22.80;52.80
1175;DHT22;576;48.418;10.074;2024-01-30T15:40:02;22.70;52.80
1175;DHT22;576;48.418;10.074;2024-01-30T15:42:33;22.80;52.80
1175;DHT22;576;48.418;10.074;2024-01-30T15:45:01;22.80;52.80
1175;DHT22;576;48.418;10.074;2024-01-30T15:47:30;22.70;52.80
1175;DHT22;576;48.418;10.074;2024-01-30T15:49:58;22.70;52.80
1175;DHT22;576;48.418;10.074;2024-01-30T15:52:27;22.70;52.90
1175;DHT22;576;48.418;10.074;2024-01-30T15:54:57;22.70;52.80
1175;DHT22;576;48.418;10.074;2024-01-30T15:57:25;22.70;52.80
1175;DHT22;576;48.418;10.074;2024-01-30T15:59:56;22.70;52.80
1175;DHT22;576;48.418;10.074;2024-01-30T16:02:24;22.70;52.80
1175;DHT22;576;48.418;10.074;2024-01-30T16:04:53;22.70;52.80
1175;DHT22;576;48.418;10.074;2024-01-30T16:07:21;22.70;52.80
1175;DHT22;576;48.418;10.074;2024-01-30T16:09:50;22.70;52.80
1175;DHT22;576;48.418;10.074;2024-01-30T16:12:19;22.70;52.80